sensor_id;sensor_type;location;lat;lon;timestamp;pressure;altitude;pressure_sealevel;temperature;humidity
75538;BME280;64121;48.666;8.114;2023-07-09T00:01:34;100245.13;;;20.71;72.09
75538;BME280;64121;48.666;8.114;2023-07-09T00:03:59;100250.81;;;20.68;71.74
75538;BME280;64121;48.666;8.114;2023-07-09T00:06:25;100247.94;;;20.75;71.45
75538;BME280;64121;48.666;8.114;2023-07-09T00:08:51;100245.13;;;20.75;72.00
75538;BME280;64121;48.666;8.114;2023-07-09T00:11:17;100239.53;;;20.61;72.20
75538;BME280;64121;48.666;8.114;2023-07-09T00:13:42;100248.81;;;20.65;71.95
75538;BME280;64121;48.666;8.114;2023-07-09T00:16:12;100239.53;;;20.64;71.91
75538;BME280;64121;48.666;8.114;2023-07-09T00:18:38;100235.88;;;20.60;73.15
75538;BME280;64121;48.666;8.114;2023-07-09T00:21:03;100242.41;;;20.43;74.39
75538;BME280;64121;48.666;8.114;2023-07-09T00:23:28;100242.00;;;20.37;74.42
75538;BME280;64121;48.666;8.114;2023-07-09T00:25:55;100235.97;;;20.42;74.18
75538;BME280;64121;48.666;8.114;2023-07-09T00:28:20;100238.78;;;20.35;74.45
75538;BME280;64121;48.666;8.114;2023-07-09T00:30:47;100246.06;;;20.25;75.21
75538;BME280;64121;48.666;8.114;2023-07-09T00:33:13;100247.34;;;20.14;75.58
75538;BME280;64121;48.666;8.114;2023-07-09T00:35:40;100244.94;;;20.12;75.18
75538;BME280;64121;48.666;8.114;2023-07-09T00:38:12;100246.06;;;20.25;74.78
75538;BME280;64121;48.666;8.114;2023-07-09T00:40:38;100249.72;;;20.33;74.55
75538;BME280;64121;48.666;8.114;2023-07-09T00:43:13;100254.19;;;20.20;75.90
75538;BME280;64121;48.666;8.114;2023-07-09T00:45:40;100251.03;;;19.93;76.45
75538;BME280;64121;48.666;8.114;2023-07-09T00:48:09;100251.78;;;20.01;75.96
75538;BME280;64121;48.666;8.114;2023-07-09T00:50:40;100248.56;;;20.02;75.80
75538;BME280;64121;48.666;8.114;2023-07-09T00:53:12;100250.19;;;20.03;75.15
75538;BME280;64121;48.666;8.114;2023-07-09T00:55:41;100248.94;;;20.08;74.35
75538;BME280;64121;48.666;8.114;2023-07-09T00:58:12;100249.38;;;20.03;74.69
75538;BME280;64121;48.666;8.114;2023-07-09T01:00:41;100252.22;;;19.99;75.25
75538;BME280;64121;48.666;8.114;2023-07-09T01:03:09;100247.75;;;20.02;74.97
75538;BME280;64121;48.666;8.114;2023-07-09T01:05:37;100245.75;;;20.02;74.93
75538;BME280;64121;48.666;8.114;2023-07-09T01:08:03;100250.59;;;19.94;75.82
75538;BME280;64121;48.666;8.114;2023-07-09T01:10:28;100250.22;;;19.82;75.71
75538;BME280;64121;48.666;8.114;2023-07-09T01:12:54;100255.03;;;19.85;75.44
75538;BME280;64121;48.666;8.114;2023-07-09T01:15:21;100257.88;;;19.95;75.44
75538;BME280;64121;48.666;8.114;2023-07-09T01:17:46;100257.44;;;20.01;74.72
75538;BME280;64121;48.666;8.114;2023-07-09T01:20:17;100254.66;;;19.83;76.42
75538;BME280;64121;48.666;8.114;2023-07-09T01:22:44;100252.25;;;19.74;76.01
75538;BME280;64121;48.666;8.114;2023-07-09T01:25:10;100255.06;;;19.74;76.33
75538;BME280;64121;48.666;8.114;2023-07-09T01:27:38;100246.59;;;19.63;77.60
75538;BME280;64121;48.666;8.114;2023-07-09T01:30:07;100247.78;;;19.48;77.35
75538;BME280;64121;48.666;8.114;2023-07-09T01:32:33;100244.16;;;19.48;77.54
75538;BME280;64121;48.666;8.114;2023-07-09T01:35:00;100247.78;;;19.38;78.06
75538;BME280;64121;48.666;8.114;2023-07-09T01:37:27;100252.19;;;19.28;78.43
75538;BME280;64121;48.666;8.114;2023-07-09T01:39:54;100246.16;;;19.33;77.99
75538;BME280;64121;48.666;8.114;2023-07-09T01:42:21;100244.16;;;19.48;77.74
75538;BME280;64121;48.666;8.114;2023-07-09T01:44:47;100239.72;;;19.43;78.08
75538;BME280;64121;48.666;8.114;2023-07-09T01:47:12;100238.91;;;19.39;78.17
75538;BME280;64121;48.666;8.114;2023-07-09T01:49:37;100243.34;;;19.47;77.88
75538;BME280;64121;48.666;8.114;2023-07-09T01:52:03;100249.03;;;19.54;77.37
75538;BME280;64121;48.666;8.114;2023-07-09T01:54:30;100245.81;;;19.56;76.98
75538;BME280;64121;48.666;8.114;2023-07-09T01:57:14;100243.38;;;19.54;77.97
75538;BME280;64121;48.666;8.114;2023-07-09T01:59:40;100252.22;;;19.42;78.38
75538;BME280;64121;48.666;8.114;2023-07-09T02:02:05;100247.38;;;19.43;78.25
75538;BME280;64121;48.666;8.114;2023-07-09T02:04:30;100249.41;;;19.39;78.47
75538;BME280;64121;48.666;8.114;2023-07-09T02:06:56;100255.81;;;19.32;77.80
75538;BME280;64121;48.666;8.114;2023-07-09T02:09:24;100255.81;;;19.32;77.91
75538;BME280;64121;48.666;8.114;2023-07-09T02:11:50;100258.66;;;19.18;79.10
75538;BME280;64121;48.666;8.114;2023-07-09T02:14:16;100263.91;;;19.41;78.27
75538;BME280;64121;48.666;8.114;2023-07-09T02:16:42;100272.75;;;19.32;78.60
75538;BME280;64121;48.666;8.114;2023-07-09T02:19:07;100272.31;;;18.98;80.50
75538;BME280;64121;48.666;8.114;2023-07-09T02:21:32;100269.50;;;19.05;79.48
75538;BME280;64121;48.666;8.114;2023-07-09T02:23:58;100272.72;;;19.14;79.30
75538;BME280;64121;48.666;8.114;2023-07-09T02:26:23;100269.91;;;19.07;80.79
75538;BME280;64121;48.666;8.114;2023-07-09T02:28:48;100274.72;;;18.99;80.78
75538;BME280;64121;48.666;8.114;2023-07-09T02:31:15;100273.88;;;18.95;80.04
75538;BME280;64121;48.666;8.114;2023-07-09T02:33:40;100270.25;;;18.95;79.88
75538;BME280;64121;48.666;8.114;2023-07-09T02:36:06;100277.50;;;18.92;80.08
75538;BME280;64121;48.666;8.114;2023-07-09T02:38:31;100278.31;;;18.96;80.11
75538;BME280;64121;48.666;8.114;2023-07-09T02:40:57;100279.91;;;18.90;80.60
75538;BME280;64121;48.666;8.114;2023-07-09T02:43:22;100271.00;;;18.70;80.75
75538;BME280;64121;48.666;8.114;2023-07-09T02:45:47;100278.56;;;18.59;82.45
75538;BME280;64121;48.666;8.114;2023-07-09T02:48:14;100282.94;;;18.42;82.85
75538;BME280;64121;48.666;8.114;2023-07-09T02:50:39;100277.63;;;18.34;83.36
75538;BME280;64121;48.666;8.114;2023-07-09T02:53:05;100290.53;;;18.35;82.87
75538;BME280;64121;48.666;8.114;2023-07-09T02:55:30;100289.41;;;18.50;82.55
75538;BME280;64121;48.666;8.114;2023-07-09T02:57:56;100293.94;;;18.65;82.00
75538;BME280;64121;48.666;8.114;2023-07-09T03:00:21;100290.66;;;18.60;82.44
75538;BME280;64121;48.666;8.114;2023-07-09T03:02:46;100290.63;;;18.56;83.19
75538;BME280;64121;48.666;8.114;2023-07-09T03:05:13;100290.50;;;18.31;84.38
75538;BME280;64121;48.666;8.114;2023-07-09T03:07:39;100293.31;;;18.31;84.07
75538;BME280;64121;48.666;8.114;2023-07-09T03:10:05;100293.72;;;18.30;84.15
75538;BME280;64121;48.666;8.114;2023-07-09T03:12:30;100291.72;;;18.30;83.73
75538;BME280;64121;48.666;8.114;2023-07-09T03:14:55;100298.97;;;18.35;83.73
75538;BME280;64121;48.666;8.114;2023-07-09T03:17:21;100297.38;;;18.37;83.51
75538;BME280;64121;48.666;8.114;2023-07-09T03:19:46;100295.41;;;18.45;83.18
75538;BME280;64121;48.666;8.114;2023-07-09T03:22:13;100301.44;;;18.43;83.18
75538;BME280;64121;48.666;8.114;2023-07-09T03:24:38;100302.63;;;18.39;83.37
75538;BME280;64121;48.666;8.114;2023-07-09T03:27:05;100303.41;;;18.36;83.56
75538;BME280;64121;48.666;8.114;2023-07-09T03:29:30;100308.19;;;18.28;84.14
75538;BME280;64121;48.666;8.114;2023-07-09T03:31:55;100304.91;;;18.19;84.64
75538;BME280;64121;48.666;8.114;2023-07-09T03:34:21;100304.91;;;18.15;84.50
75538;BME280;64121;48.666;8.114;2023-07-09T03:36:46;100310.13;;;18.17;84.33
75538;BME280;64121;48.666;8.114;2023-07-09T03:39:13;100312.91;;;18.06;84.67
75538;BME280;64121;48.666;8.114;2023-07-09T03:41:38;100319.47;;;18.28;84.18
75538;BME280;64121;48.666;8.114;2023-07-09T03:44:04;100320.69;;;18.27;84.37
75538;BME280;64121;48.666;8.114;2023-07-09T03:46:29;100314.53;;;18.14;87.07
75538;BME280;64121;48.666;8.114;2023-07-09T03:48:55;100324.09;;;17.99;87.27
75538;BME280;64121;48.666;8.114;2023-07-09T03:51:20;100319.72;;;18.05;86.29
75538;BME280;64121;48.666;8.114;2023-07-09T03:53:45;100316.53;;;18.07;86.15
75538;BME280;64121;48.666;8.114;2023-07-09T03:56:12;100315.75;;;18.17;85.83
75538;BME280;64121;48.666;8.114;2023-07-09T03:58:37;100315.84;;;18.28;85.70
75538;BME280;64121;48.666;8.114;2023-07-09T04:01:03;100319.09;;;18.37;86.09
75538;BME280;64121;48.666;8.114;2023-07-09T04:03:28;100317.56;;;18.43;86.30
75538;BME280;64121;48.666;8.114;2023-07-09T04:05:54;100317.16;;;18.48;85.15
75538;BME280;64121;48.666;8.114;2023-07-09T04:08:19;100321.31;;;18.65;84.22
75538;BME280;64121;48.666;8.114;2023-07-09T04:10:44;100331.41;;;18.73;85.25
75538;BME280;64121;48.666;8.114;2023-07-09T04:13:11;100330.19;;;18.74;85.02
75538;BME280;64121;48.666;8.114;2023-07-09T04:15:36;100327.41;;;18.77;83.17
75538;BME280;64121;48.666;8.114;2023-07-09T04:18:02;100331.06;;;18.89;83.65
75538;BME280;64121;48.666;8.114;2023-07-09T04:20:27;100330.72;;;18.97;84.02
75538;BME280;64121;48.666;8.114;2023-07-09T04:22:53;100330.69;;;18.90;84.09
75538;BME280;64121;48.666;8.114;2023-07-09T04:25:18;100344.38;;;18.92;83.49
75538;BME280;64121;48.666;8.114;2023-07-09T04:27:44;100336.72;;;18.96;83.08
75538;BME280;64121;48.666;8.114;2023-07-09T04:30:13;100334.38;;;19.05;82.69
75538;BME280;64121;48.666;8.114;2023-07-09T04:32:39;100342.88;;;19.16;81.96
75538;BME280;64121;48.666;8.114;2023-07-09T04:35:05;100342.09;;;19.29;81.57
75538;BME280;64121;48.666;8.114;2023-07-09T04:37:31;100347.38;;;19.42;81.46
75538;BME280;64121;48.666;8.114;2023-07-09T04:39:56;100344.94;;;19.51;81.41
75538;BME280;64121;48.666;8.114;2023-07-09T04:42:21;100351.03;;;19.53;81.28
75538;BME280;64121;48.666;8.114;2023-07-09T04:44:47;100351.88;;;19.57;81.26
75538;BME280;64121;48.666;8.114;2023-07-09T04:47:14;100349.03;;;19.64;81.30
75538;BME280;64121;48.666;8.114;2023-07-09T04:49:39;100355.50;;;19.68;81.21
75538;BME280;64121;48.666;8.114;2023-07-09T04:52:06;100355.13;;;19.73;80.83
75538;BME280;64121;48.666;8.114;2023-07-09T04:54:31;100360.34;;;19.82;80.54
75538;BME280;64121;48.666;8.114;2023-07-09T04:56:57;100359.13;;;19.86;80.60
75538;BME280;64121;48.666;8.114;2023-07-09T04:59:23;100356.69;;;20.24;79.65
75538;BME280;64121;48.666;8.114;2023-07-09T05:01:48;100364.75;;;21.56;74.45
75538;BME280;64121;48.666;8.114;2023-07-09T05:04:15;100353.66;;;23.06;68.43
75538;BME280;64121;48.666;8.114;2023-07-09T05:06:41;100359.28;;;23.94;65.08
75538;BME280;64121;48.666;8.114;2023-07-09T05:09:06;100344.31;;;24.80;61.65
75538;BME280;64121;48.666;8.114;2023-07-09T05:11:34;100353.72;;;25.36;59.68
75538;BME280;64121;48.666;8.114;2023-07-09T05:14:00;100351.97;;;25.95;58.50
75538;BME280;64121;48.666;8.114;2023-07-09T05:16:25;100358.91;;;26.26;56.95
75538;BME280;64121;48.666;8.114;2023-07-09T05:18:51;100346.09;;;25.86;58.14
75538;BME280;64121;48.666;8.114;2023-07-09T05:21:17;100356.50;;;26.09;57.20
75538;BME280;64121;48.666;8.114;2023-07-09T05:23:43;100344.50;;;25.65;58.31
75538;BME280;64121;48.666;8.114;2023-07-09T05:26:09;100351.41;;;25.31;59.19
75538;BME280;64121;48.666;8.114;2023-07-09T05:28:34;100346.09;;;24.74;60.16
75538;BME280;64121;48.666;8.114;2023-07-09T05:31:00;100346.38;;;24.80;59.71
75538;BME280;64121;48.666;8.114;2023-07-09T05:33:25;100347.16;;;24.13;61.38
75538;BME280;64121;48.666;8.114;2023-07-09T05:35:51;100339.13;;;24.08;61.53
75538;BME280;64121;48.666;8.114;2023-07-09T05:38:17;100342.28;;;23.91;61.82
75538;BME280;64121;48.666;8.114;2023-07-09T05:40:43;100338.75;;;23.83;61.99
75538;BME280;64121;48.666;8.114;2023-07-09T05:43:09;100335.16;;;23.79;62.87
75538;BME280;64121;48.666;8.114;2023-07-09T05:45:34;100338.69;;;23.63;63.79
75538;BME280;64121;48.666;8.114;2023-07-09T05:48:00;100331.66;;;23.95;63.04
75538;BME280;64121;48.666;8.114;2023-07-09T05:50:26;100333.94;;;24.27;62.75
75538;BME280;64121;48.666;8.114;2023-07-09T05:52:52;100338.41;;;24.04;63.06
75538;BME280;64121;48.666;8.114;2023-07-09T05:55:19;100343.28;;;23.80;64.32
75538;BME280;64121;48.666;8.114;2023-07-09T05:57:44;100352.59;;;23.81;64.79
75538;BME280;64121;48.666;8.114;2023-07-09T06:00:11;100352.81;;;23.67;64.09
75538;BME280;64121;48.666;8.114;2023-07-09T06:02:36;100357.22;;;23.95;63.67
75538;BME280;64121;48.666;8.114;2023-07-09T06:05:02;100357.25;;;24.18;63.42
75538;BME280;64121;48.666;8.114;2023-07-09T06:07:27;100352.69;;;24.01;62.51
75538;BME280;64121;48.666;8.114;2023-07-09T06:09:53;100352.31;;;24.22;60.95
75538;BME280;64121;48.666;8.114;2023-07-09T06:12:20;100358.44;;;24.21;63.49
75538;BME280;64121;48.666;8.114;2023-07-09T06:14:45;100364.28;;;24.37;62.92
75538;BME280;64121;48.666;8.114;2023-07-09T06:17:10;100357.63;;;24.43;62.47
75538;BME280;64121;48.666;8.114;2023-07-09T06:19:36;100356.03;;;24.42;62.57
75538;BME280;64121;48.666;8.114;2023-07-09T06:22:02;100358.84;;;24.66;61.97
75538;BME280;64121;48.666;8.114;2023-07-09T06:24:27;100351.81;;;24.70;62.10
75538;BME280;64121;48.666;8.114;2023-07-09T06:26:53;100355.78;;;24.76;61.68
75538;BME280;64121;48.666;8.114;2023-07-09T06:29:19;100362.22;;;24.81;62.26
75538;BME280;64121;48.666;8.114;2023-07-09T06:31:45;100357.47;;;24.74;61.81
75538;BME280;64121;48.666;8.114;2023-07-09T06:34:10;100359.97;;;24.92;61.76
75538;BME280;64121;48.666;8.114;2023-07-09T06:36:36;100344.41;;;24.96;61.29
75538;BME280;64121;48.666;8.114;2023-07-09T06:39:01;100354.94;;;24.99;61.27
75538;BME280;64121;48.666;8.114;2023-07-09T06:41:27;100344.84;;;24.75;61.22
75538;BME280;64121;48.666;8.114;2023-07-09T06:43:52;100351.47;;;24.88;61.26
75538;BME280;64121;48.666;8.114;2023-07-09T06:46:19;100350.41;;;25.02;61.12
75538;BME280;64121;48.666;8.114;2023-07-09T06:48:45;100350.19;;;25.13;60.15
75538;BME280;64121;48.666;8.114;2023-07-09T06:51:11;100345.22;;;24.97;60.05
75538;BME280;64121;48.666;8.114;2023-07-09T06:53:36;100346.78;;;25.38;59.47
75538;BME280;64121;48.666;8.114;2023-07-09T06:56:02;100349.81;;;25.30;59.69
75538;BME280;64121;48.666;8.114;2023-07-09T06:58:30;100345.63;;;25.35;60.28
75538;BME280;64121;48.666;8.114;2023-07-09T07:00:56;100341.94;;;25.54;58.44
75538;BME280;64121;48.666;8.114;2023-07-09T07:03:23;100346.34;;;25.39;59.52
75538;BME280;64121;48.666;8.114;2023-07-09T07:05:50;100351.19;;;25.58;58.33
75538;BME280;64121;48.666;8.114;2023-07-09T07:08:17;100347.34;;;25.85;58.68
75538;BME280;64121;48.666;8.114;2023-07-09T07:10:43;100343.06;;;25.93;58.32
75538;BME280;64121;48.666;8.114;2023-07-09T07:13:08;100348.13;;;26.02;56.72
75538;BME280;64121;48.666;8.114;2023-07-09T07:15:36;100344.38;;;26.21;56.01
75538;BME280;64121;48.666;8.114;2023-07-09T07:18:02;100344.25;;;26.57;55.11
75538;BME280;64121;48.666;8.114;2023-07-09T07:20:29;100345.69;;;26.49;55.25
75538;BME280;64121;48.666;8.114;2023-07-09T07:22:54;100346.72;;;26.71;55.55
75538;BME280;64121;48.666;8.114;2023-07-09T07:25:20;100345.81;;;27.03;54.51
75538;BME280;64121;48.666;8.114;2023-07-09T07:27:45;100341.53;;;26.95;54.54
75538;BME280;64121;48.666;8.114;2023-07-09T07:30:11;100342.19;;;27.15;53.87
75538;BME280;64121;48.666;8.114;2023-07-09T07:32:38;100325.56;;;27.52;53.33
75538;BME280;64121;48.666;8.114;2023-07-09T07:35:07;100338.34;;;27.48;53.15
75538;BME280;64121;48.666;8.114;2023-07-09T07:37:34;100332.75;;;27.69;52.15
75538;BME280;64121;48.666;8.114;2023-07-09T07:39:59;100329.31;;;27.87;51.97
75538;BME280;64121;48.666;8.114;2023-07-09T07:42:25;100326.84;;;28.24;51.36
75538;BME280;64121;48.666;8.114;2023-07-09T07:44:50;100328.09;;;28.35;52.34
75538;BME280;64121;48.666;8.114;2023-07-09T07:47:15;100335.56;;;28.68;49.49
75538;BME280;64121;48.666;8.114;2023-07-09T07:49:41;100328.03;;;28.83;49.83
75538;BME280;64121;48.666;8.114;2023-07-09T07:52:07;100330.84;;;28.39;48.87
75538;BME280;64121;48.666;8.114;2023-07-09T07:54:34;100325.53;;;28.50;48.54
75538;BME280;64121;48.666;8.114;2023-07-09T07:56:59;100322.81;;;28.69;47.69
75538;BME280;64121;48.666;8.114;2023-07-09T07:59:25;100330.47;;;28.72;48.85
75538;BME280;64121;48.666;8.114;2023-07-09T08:01:50;100323.94;;;29.15;46.42
75538;BME280;64121;48.666;8.114;2023-07-09T08:04:15;100323.38;;;29.20;47.63
75538;BME280;64121;48.666;8.114;2023-07-09T08:06:41;100324.88;;;29.65;45.68
75538;BME280;64121;48.666;8.114;2023-07-09T08:09:06;100323.66;;;29.84;45.67
75538;BME280;64121;48.666;8.114;2023-07-09T08:11:33;100319.66;;;29.41;46.39
75538;BME280;64121;48.666;8.114;2023-07-09T08:13:59;100322.03;;;30.14;45.36
75538;BME280;64121;48.666;8.114;2023-07-09T08:16:24;100323.28;;;30.04;45.32
75538;BME280;64121;48.666;8.114;2023-07-09T08:18:49;100332.63;;;30.72;43.76
75538;BME280;64121;48.666;8.114;2023-07-09T08:21:15;100340.22;;;31.12;42.19
75538;BME280;64121;48.666;8.114;2023-07-09T08:23:40;100336.38;;;31.33;42.43
75538;BME280;64121;48.666;8.114;2023-07-09T08:26:06;100326.91;;;31.42;42.62
75538;BME280;64121;48.666;8.114;2023-07-09T08:28:34;100331.16;;;31.64;41.57
75538;BME280;64121;48.666;8.114;2023-07-09T08:30:59;100328.66;;;31.39;42.52
75538;BME280;64121;48.666;8.114;2023-07-09T08:33:25;100330.22;;;30.80;43.08
75538;BME280;64121;48.666;8.114;2023-07-09T08:35:51;100322.66;;;31.10;41.55
75538;BME280;64121;48.666;8.114;2023-07-09T08:38:17;100322.66;;;31.19;42.50
75538;BME280;64121;48.666;8.114;2023-07-09T08:40:50;100328.56;;;31.24;41.55
75538;BME280;64121;48.666;8.114;2023-07-09T08:43:39;100322.50;;;31.13;41.62
75538;BME280;64121;48.666;8.114;2023-07-09T08:46:15;100325.53;;;31.10;42.69
75538;BME280;64121;48.666;8.114;2023-07-09T08:48:45;100329.94;;;31.47;40.12
75538;BME280;64121;48.666;8.114;2023-07-09T08:51:14;100331.72;;;32.11;38.61
75538;BME280;64121;48.666;8.114;2023-07-09T08:53:45;100322.78;;;32.57;38.56
75538;BME280;64121;48.666;8.114;2023-07-09T08:56:14;100333.25;;;31.55;39.70
75538;BME280;64121;48.666;8.114;2023-07-09T08:58:42;100332.06;;;31.80;40.01
75538;BME280;64121;48.666;8.114;2023-07-09T09:01:17;100330.09;;;32.19;39.48
75538;BME280;64121;48.666;8.114;2023-07-09T09:03:47;100330.09;;;32.43;39.54
75538;BME280;64121;48.666;8.114;2023-07-09T09:06:14;100327.25;;;32.96;39.52
75538;BME280;64121;48.666;8.114;2023-07-09T09:08:44;100321.16;;;33.09;41.34
75538;BME280;64121;48.666;8.114;2023-07-09T09:11:18;100331.34;;;33.84;37.56
75538;BME280;64121;48.666;8.114;2023-07-09T09:13:48;100326.75;;;34.07;36.65
75538;BME280;64121;48.666;8.114;2023-07-09T09:16:22;100328.59;;;34.45;36.69
75538;BME280;64121;48.666;8.114;2023-07-09T09:18:50;100325.13;;;34.61;36.07
75538;BME280;64121;48.666;8.114;2023-07-09T09:21:22;100319.13;;;34.24;37.02
75538;BME280;64121;48.666;8.114;2023-07-09T09:23:50;100308.25;;;33.98;36.91
75538;BME280;64121;48.666;8.114;2023-07-09T09:26:18;100298.41;;;33.40;37.99
75538;BME280;64121;48.666;8.114;2023-07-09T09:28:47;100295.63;;;33.02;37.91
75538;BME280;64121;48.666;8.114;2023-07-09T09:31:13;100286.84;;;33.55;36.99
75538;BME280;64121;48.666;8.114;2023-07-09T09:33:41;100284.78;;;33.91;36.62
75538;BME280;64121;48.666;8.114;2023-07-09T09:36:14;100280.72;;;33.33;37.74
75538;BME280;64121;48.666;8.114;2023-07-09T09:38:40;100273.84;;;32.86;38.25
75538;BME280;64121;48.666;8.114;2023-07-09T09:41:13;100278.50;;;33.57;37.07
75538;BME280;64121;48.666;8.114;2023-07-09T09:43:42;100274.38;;;34.19;36.21
75538;BME280;64121;48.666;8.114;2023-07-09T09:46:09;100272.03;;;34.38;36.62
75538;BME280;64121;48.666;8.114;2023-07-09T09:48:36;100262.84;;;34.86;34.84
75538;BME280;64121;48.666;8.114;2023-07-09T09:51:03;100273.59;;;34.19;36.47
75538;BME280;64121;48.666;8.114;2023-07-09T09:53:39;100270.50;;;35.15;35.51
75538;BME280;64121;48.666;8.114;2023-07-09T09:56:06;100264.59;;;35.67;34.16
75538;BME280;64121;48.666;8.114;2023-07-09T09:58:40;100265.13;;;34.56;35.18
75538;BME280;64121;48.666;8.114;2023-07-09T10:01:05;100263.13;;;34.21;36.02
75538;BME280;64121;48.666;8.114;2023-07-09T10:03:36;100255.91;;;34.52;36.44
75538;BME280;64121;48.666;8.114;2023-07-09T10:06:06;100249.78;;;34.24;35.48
75538;BME280;64121;48.666;8.114;2023-07-09T10:08:43;100251.50;;;34.16;35.92
75538;BME280;64121;48.666;8.114;2023-07-09T10:11:16;100249.91;;;35.07;35.33
75538;BME280;64121;48.666;8.114;2023-07-09T10:13:45;100253.25;;;35.32;33.71
75538;BME280;64121;48.666;8.114;2023-07-09T10:16:17;100260.91;;;35.03;33.89
75538;BME280;64121;48.666;8.114;2023-07-09T10:18:52;100250.72;;;34.82;33.13
75538;BME280;64121;48.666;8.114;2023-07-09T10:21:23;100243.25;;;34.49;33.27
75538;BME280;64121;48.666;8.114;2023-07-09T10:23:58;100253.38;;;33.98;34.24
75538;BME280;64121;48.666;8.114;2023-07-09T10:26:32;100257.94;;;34.72;32.14
75538;BME280;64121;48.666;8.114;2023-07-09T10:29:07;100253.25;;;34.48;31.85
75538;BME280;64121;48.666;8.114;2023-07-09T10:31:41;100255.38;;;34.53;31.86
75538;BME280;64121;48.666;8.114;2023-07-09T10:34:21;100252.34;;;35.14;31.00
75538;BME280;64121;48.666;8.114;2023-07-09T10:37:05;100250.31;;;35.26;30.75
75538;BME280;64121;48.666;8.114;2023-07-09T10:39:36;100243.69;;;35.89;31.46
75538;BME280;64121;48.666;8.114;2023-07-09T10:42:03;100250.09;;;35.67;30.97
75538;BME280;64121;48.666;8.114;2023-07-09T10:44:32;100239.16;;;35.82;31.01
75538;BME280;64121;48.666;8.114;2023-07-09T10:47:01;100237.63;;;36.52;29.80
75538;BME280;64121;48.666;8.114;2023-07-09T10:49:31;100241.25;;;35.13;30.16
75538;BME280;64121;48.666;8.114;2023-07-09T10:52:04;100242.41;;;35.53;31.24
75538;BME280;64121;48.666;8.114;2023-07-09T10:54:34;100245.50;;;35.86;31.10
75538;BME280;64121;48.666;8.114;2023-07-09T10:57:03;100233.81;;;36.18;29.49
75538;BME280;64121;48.666;8.114;2023-07-09T10:59:35;100236.88;;;35.97;30.72
75538;BME280;64121;48.666;8.114;2023-07-09T11:02:15;100228.16;;;35.49;30.54
75538;BME280;64121;48.666;8.114;2023-07-09T11:04:47;100225.22;;;35.86;30.03
75538;BME280;64121;48.666;8.114;2023-07-09T11:07:17;100235.91;;;36.12;30.53
75538;BME280;64121;48.666;8.114;2023-07-09T11:09:45;100233.03;;;36.23;29.86
75538;BME280;64121;48.666;8.114;2023-07-09T11:12:13;100231.97;;;36.26;29.68
75538;BME280;64121;48.666;8.114;2023-07-09T11:14:43;100229.28;;;36.93;29.04
75538;BME280;64121;48.666;8.114;2023-07-09T11:17:14;100229.16;;;36.37;28.93
75538;BME280;64121;48.666;8.114;2023-07-09T11:19:42;100226.41;;;35.68;29.99
75538;BME280;64121;48.666;8.114;2023-07-09T11:22:15;100221.22;;;35.78;30.60
75538;BME280;64121;48.666;8.114;2023-07-09T11:24:46;100219.31;;;36.12;30.34
75538;BME280;64121;48.666;8.114;2023-07-09T11:27:17;100205.16;;;36.31;31.15
75538;BME280;64121;48.666;8.114;2023-07-09T11:29:45;100219.53;;;36.96;28.40
75538;BME280;64121;48.666;8.114;2023-07-09T11:32:18;100216.09;;;36.97;29.65
75538;BME280;64121;48.666;8.114;2023-07-09T11:34:45;100211.66;;;38.10;27.46
75538;BME280;64121;48.666;8.114;2023-07-09T11:37:11;100220.47;;;37.88;27.35
75538;BME280;64121;48.666;8.114;2023-07-09T11:39:44;100220.75;;;37.96;26.90
75538;BME280;64121;48.666;8.114;2023-07-09T11:42:28;100208.34;;;37.84;27.82
75538;BME280;64121;48.666;8.114;2023-07-09T11:45:00;100207.06;;;38.37;27.13
75538;BME280;64121;48.666;8.114;2023-07-09T11:47:28;100212.53;;;38.52;26.91
75538;BME280;64121;48.666;8.114;2023-07-09T11:49:57;100202.84;;;38.80;25.63
75538;BME280;64121;48.666;8.114;2023-07-09T11:52:28;100202.22;;;38.92;25.76
75538;BME280;64121;48.666;8.114;2023-07-09T11:55:01;100208.25;;;38.59;25.92
75538;BME280;64121;48.666;8.114;2023-07-09T11:57:28;100202.59;;;37.56;28.37
75538;BME280;64121;48.666;8.114;2023-07-09T11:59:58;100201.44;;;37.98;27.64
75538;BME280;64121;48.666;8.114;2023-07-09T12:02:32;100198.97;;;36.88;28.43
75538;BME280;64121;48.666;8.114;2023-07-09T12:04:58;100195.25;;;37.21;28.25
75538;BME280;64121;48.666;8.114;2023-07-09T12:07:24;100194.66;;;37.62;27.73
75538;BME280;64121;48.666;8.114;2023-07-09T12:09:50;100184.94;;;36.70;28.28
75538;BME280;64121;48.666;8.114;2023-07-09T12:12:21;100183.38;;;36.69;28.95
75538;BME280;64121;48.666;8.114;2023-07-09T12:14:48;100185.41;;;37.80;27.47
75538;BME280;64121;48.666;8.114;2023-07-09T12:17:14;100179.78;;;37.99;27.12
75538;BME280;64121;48.666;8.114;2023-07-09T12:19:40;100180.66;;;38.30;26.86
75538;BME280;64121;48.666;8.114;2023-07-09T12:22:10;100177.56;;;38.63;25.16
75538;BME280;64121;48.666;8.114;2023-07-09T12:24:42;100179.56;;;38.80;26.27
75538;BME280;64121;48.666;8.114;2023-07-09T12:27:18;100160.38;;;37.49;26.42
75538;BME280;64121;48.666;8.114;2023-07-09T12:29:45;100156.56;;;37.88;26.40
75538;BME280;64121;48.666;8.114;2023-07-09T12:32:12;100152.19;;;37.53;26.77
75538;BME280;64121;48.666;8.114;2023-07-09T12:34:37;100145.34;;;37.45;27.23
75538;BME280;64121;48.666;8.114;2023-07-09T12:37:03;100150.91;;;37.32;27.36
75538;BME280;64121;48.666;8.114;2023-07-09T12:39:31;100148.81;;;37.10;27.61
75538;BME280;64121;48.666;8.114;2023-07-09T12:42:00;100148.84;;;36.93;28.01
75538;BME280;64121;48.666;8.114;2023-07-09T12:44:35;100138.25;;;37.35;27.85
75538;BME280;64121;48.666;8.114;2023-07-09T12:47:03;100133.03;;;37.92;27.30
75538;BME280;64121;48.666;8.114;2023-07-09T12:49:30;100135.47;;;39.00;25.69
75538;BME280;64121;48.666;8.114;2023-07-09T12:51:57;100133.41;;;38.95;25.65